Time;durP1;ratioP1;P1;durP2;ratioP2;P2;SDS_P1;SDS_P2;PMS_P1;PMS_P2;Temp;Humidity;BMP_temperature;BMP_pressure;BME280_temperature;BME280_humidity;BME280_pressure;Samples;Min_cycle;Max_cycle;Signal;HPM_P1;HPM_P2
2023/10/04 00:00:15;;;;;;;21.80;10.60;;;;;;;15.55;77.80;99859.83;108459;1252;60780;-63
2023/10/04 00:02:51;;;;;;;21.70;11.10;;;;;;;15.55;77.87;99859.30;108348;1254;59778;-63
2023/10/04 00:05:21;;;;;;;21.20;11.00;;;;;;;15.54;78.20;99856.92;108467;1252;73551;-63
2023/10/04 00:07:55;;;;;;;18.90;9.60;;;;;;;15.53;78.07;99854.82;108467;1253;68631;-64
2023/10/04 00:10:23;;;;;;;17.30;9.90;;;;;;;15.51;78.03;99851.41;108402;1253;72359;-63
2023/10/04 00:12:52;;;;;;;19.80;10.20;;;;;;;15.48;78.14;99848.58;108424;1253;59795;-63
2023/10/04 00:15:25;;;;;;;21.90;10.20;;;;;;;15.45;78.41;99843.33;108418;1253;59874;-63
2023/10/04 00:17:53;;;;;;;25.60;9.90;;;;;;;15.39;78.74;99842.61;108474;1251;72668;-64
2023/10/04 00:20:21;;;;;;;21.70;10.10;;;;;;;15.34;79.12;99839.55;108553;1251;69170;-64
2023/10/04 00:22:50;;;;;;;21.60;10.20;;;;;;;15.33;79.54;99837.34;108527;1251;72169;-64
2023/10/04 00:25:20;;;;;;;21.00;10.60;;;;;;;15.30;79.83;99836.59;108658;1252;59835;-63
2023/10/04 00:27:52;;;;;;;18.30;10.30;;;;;;;15.28;80.19;99832.11;108541;1253;60041;-64
2023/10/04 00:30:22;;;;;;;16.80;10.10;;;;;;;15.27;80.29;99832.23;108568;1252;73615;-64
2023/10/04 00:32:53;;;;;;;16.60;10.10;;;;;;;15.22;80.59;99826.63;108306;1253;69026;-64
2023/10/04 00:35:21;;;;;;;16.50;9.00;;;;;;;15.24;80.47;99829.19;108470;1252;71513;-64
2023/10/04 00:37:56;;;;;;;16.80;9.80;;;;;;;15.24;80.87;99830.27;108430;1253;59797;-64
2023/10/04 00:40:30;;;;;;;18.70;10.40;;;;;;;15.24;80.83;99831.64;108455;1252;59696;-63
2023/10/04 00:43:01;;;;;;;17.20;10.00;;;;;;;15.22;80.67;99833.90;108416;1251;74554;-64
2023/10/04 00:45:32;;;;;;;17.30;10.40;;;;;;;15.20;81.09;99831.52;108551;1251;69133;-63
2023/10/04 00:48:04;;;;;;;18.40;10.20;;;;;;;15.22;81.16;99829.65;108316;1253;73327;-64
2023/10/04 00:50:32;;;;;;;16.70;9.40;;;;;;;15.26;80.69;99825.90;108251;1251;60444;-63
2023/10/04 00:53:08;;;;;;;20.30;10.10;;;;;;;15.25;80.67;99827.35;108293;1251;59615;-65
2023/10/04 00:55:45;;;;;;;21.70;10.00;;;;;;;15.22;81.11;99826.13;108326;1251;73672;-63
2023/10/04 00:58:17;;;;;;;22.10;9.70;;;;;;;15.23;80.87;99820.59;108398;1252;69437;-65
2023/10/04 01:00:45;;;;;;;15.60;9.50;;;;;;;15.26;80.59;99820.10;108404;1252;73304;-64
2023/10/04 01:03:23;;;;;;;17.20;9.70;;;;;;;15.25;80.66;99819.60;108482;1253;59854;-63
2023/10/04 01:05:52;;;;;;;15.50;9.60;;;;;;;15.25;80.80;99817.52;108425;1253;59931;-64
2023/10/04 01:08:21;;;;;;;16.50;9.90;;;;;;;15.24;80.62;99813.84;108479;1252;74053;-63
2023/10/04 01:10:50;;;;;;;18.90;10.00;;;;;;;15.23;80.80;99818.16;108280;1255;69227;-63
2023/10/04 01:13:26;;;;;;;13.90;10.10;;;;;;;15.21;81.04;99813.86;108420;1252;73384;-63
2023/10/04 01:15:59;;;;;;;15.50;9.60;;;;;;;15.19;81.05;99816.92;108422;1252;59735;-63
2023/10/04 01:18:30;;;;;;;18.80;10.90;;;;;;;15.18;80.93;99814.17;108488;1251;59754;-64
2023/10/04 01:20:59;;;;;;;17.80;10.00;;;;;;;15.15;81.25;99811.00;108479;1251;72743;-63
2023/10/04 01:23:29;;;;;;;18.60;10.00;;;;;;;15.14;81.37;99812.48;108500;1251;69984;-64
2023/10/04 01:25:57;;;;;;;16.50;9.30;;;;;;;15.16;81.32;99807.93;108544;1251;72521;-64
2023/10/04 01:28:28;;;;;;;17.10;10.40;;;;;;;15.20;80.78;99811.41;108402;1253;59855;-64
2023/10/04 01:30:59;;;;;;;17.20;9.50;;;;;;;15.19;80.89;99812.17;108413;1253;58967;-64
2023/10/04 01:33:28;;;;;;;19.80;9.10;;;;;;;15.18;80.77;99807.24;108159;1253;72530;-64
2023/10/04 01:35:57;;;;;;;14.50;9.30;;;;;;;15.16;80.89;99802.11;108431;1253;69133;-64
2023/10/04 01:38:25;;;;;;;;;;;;;;;15.15;81.00;99804.80;108425;1253;72465;-64
2023/10/04 01:40:54;;;;;;;22.10;9.40;;;;;;;15.14;81.15;99802.58;108456;1253;60831;-64
2023/10/04 01:43:24;;;;;;;16.50;8.80;;;;;;;15.15;80.95;99801.81;108546;1252;58899;-64
2023/10/04 01:45:58;;;;;;;21.00;9.00;;;;;;;15.16;80.84;99798.04;108438;1253;73602;-62
2023/10/04 01:48:35;;;;;;;17.00;8.70;;;;;;;15.14;80.78;99795.14;108345;1253;68123;-62
2023/10/04 01:51:04;;;;;;;15.20;9.60;;;;;;;15.14;80.71;99793.77;108156;1253;72911;-62
2023/10/04 01:53:35;;;;;;;18.00;9.90;;;;;;;15.16;80.52;99789.41;108367;1253;61230;-62
2023/10/04 01:56:05;;;;;;;18.20;9.50;;;;;;;15.16;80.30;99788.52;108173;1254;59694;-61
2023/10/04 01:58:34;;;;;;;16.20;9.00;;;;;;;15.18;80.09;99785.23;108485;1251;73658;-62
2023/10/04 02:01:01;;;;;;;17.90;9.60;;;;;;;15.14;79.82;99772.39;108324;1253;69652;-62
2023/10/04 02:03:30;;;;;;;17.10;9.20;;;;;;;15.22;79.47;99777.38;108276;1251;72392;-62
2023/10/04 02:06:01;;;;;;;17.20;9.60;;;;;;;15.25;78.97;99776.14;108546;1251;58832;-65
2023/10/04 02:08:30;;;;;;;18.70;9.40;;;;;;;15.26;79.03;99769.41;108576;1251;61124;-65
2023/10/04 02:10:58;;;;;;;14.30;8.80;;;;;;;15.25;79.00;99766.98;108525;1251;73591;-65
2023/10/04 02:13:27;;;;;;;15.60;9.40;;;;;;;15.26;79.02;99766.55;108583;1251;68193;-65
2023/10/04 02:15:57;;;;;;;21.60;9.40;;;;;;;15.29;78.68;99761.05;108540;1251;72332;-65
2023/10/04 02:18:25;;;;;;;21.90;9.40;;;;;;;15.26;78.72;99756.29;108530;1251;59785;-65
2023/10/04 02:20:53;;;;;;;15.60;8.90;;;;;;;15.24;78.84;99753.45;108591;1252;59435;-65
2023/10/04 02:23:23;;;;;;;17.60;9.70;;;;;;;15.19;79.01;99748.96;108466;1251;74540;-65
2023/10/04 02:25:52;;;;;;;20.50;9.60;;;;;;;15.13;79.45;99742.23;108559;1251;69158;-65
2023/10/04 02:28:23;;;;;;;18.50;9.80;;;;;;;15.07;79.64;99735.36;108596;1252;73785;-64
2023/10/04 02:30:55;;;;;;;18.20;9.00;;;;;;;15.11;79.67;99739.38;108499;1252;59772;-64
2023/10/04 02:33:31;;;;;;;19.40;9.40;;;;;;;15.09;79.85;99737.94;108393;1252;60098;-64
2023/10/04 02:36:06;;;;;;;22.10;10.20;;;;;;;15.05;80.00;99737.10;108402;1253;73867;-64
2023/10/04 02:38:36;;;;;;;16.00;9.20;;;;;;;15.02;80.41;99734.46;108487;1253;69496;-66
2023/10/04 02:41:05;;;;;;;15.20;8.90;;;;;;;15.01;80.37;99730.45;108552;1252;72474;-67
2023/10/04 02:43:35;;;;;;;16.90;9.40;;;;;;;15.01;80.37;99730.64;108368;1251;59775;-67
2023/10/04 02:46:03;;;;;;;14.70;9.50;;;;;;;15.03;80.12;99731.20;108449;1251;59713;-67
2023/10/04 02:48:32;;;;;;;;;;;;;;;15.01;80.13;99728.35;108463;1253;72931;-67
2023/10/04 02:51:01;;;;;;;16.00;9.70;;;;;;;14.95;80.39;99730.10;108096;1253;69588;-66
2023/10/04 02:53:29;;;;;;;17.00;9.80;;;;;;;14.91;80.65;99727.86;108302;1251;72222;-67
2023/10/04 02:55:58;;;;;;;22.20;9.80;;;;;;;14.88;80.97;99727.15;108330;1253;59091;-67
2023/10/04 02:58:47;;;;;;;16.10;9.60;;;;;;;14.89;81.20;99726.77;108409;1253;58724;-66
2023/10/04 03:01:26;;;;;;;17.80;9.90;;;;;;;14.88;81.24;99724.71;108203;1255;73733;-65
2023/10/04 03:03:55;;;;;;;17.10;9.40;;;;;;;14.84;81.16;99722.27;108298;1251;70522;-65
2023/10/04 03:06:25;;;;;;;19.60;9.10;;;;;;;14.82;81.81;99721.02;108266;1255;72950;-65
2023/10/04 03:08:56;;;;;;;16.50;10.20;;;;;;;14.80;81.87;99719.36;108338;1254;59773;-64
2023/10/04 03:11:25;;;;;;;15.90;8.90;;;;;;;14.80;81.92;99721.48;108432;1252;60897;-65
2023/10/04 03:13:53;;;;;;;17.50;9.10;;;;;;;14.84;81.78;99713.86;108261;1252;75112;-65
2023/10/04 03:16:21;;;;;;;15.90;8.70;;;;;;;14.85;81.52;99712.33;107809;1253;69667;-65
2023/10/04 03:18:49;;;;;;;19.20;9.00;;;;;;;14.85;81.64;99707.75;108232;1251;72332;-66
2023/10/04 03:21:20;;;;;;;20.90;9.20;;;;;;;14.85;81.38;99709.86;108383;1251;59812;-66
2023/10/04 03:23:54;;;;;;;18.80;9.40;;;;;;;14.83;81.75;99706.14;108194;1253;59838;-66
2023/10/04 03:26:22;;;;;;;15.30;8.80;;;;;;;14.81;81.86;99706.23;108273;1253;73734;-66
2023/10/04 03:28:56;;;;;;;19.80;8.80;;;;;;;14.80;81.76;99699.58;108434;1253;69911;-65
2023/10/04 03:31:27;;;;;;;18.20;9.60;;;;;;;14.79;81.86;99695.01;108563;1251;72463;-66
2023/10/04 03:33:58;;;;;;;20.10;9.70;;;;;;;14.76;82.13;99692.56;108399;1254;59000;-69
2023/10/04 03:36:29;;;;;;;17.20;9.00;;;;;;;14.74;82.50;99685.81;108514;1251;59701;-70
2023/10/04 03:39:03;;;;;;;15.10;8.80;;;;;;;14.72;82.84;99679.77;108473;1251;72312;-70
2023/10/04 03:41:32;;;;;;;16.40;9.80;;;;;;;14.72;83.01;99680.27;108456;1252;70446;-70
2023/10/04 03:44:05;;;;;;;19.20;9.70;;;;;;;14.72;82.82;99679.40;108201;1253;72910;-70
2023/10/04 03:46:34;;;;;;;16.40;9.20;;;;;;;14.72;82.67;99678.35;108497;1252;60149;-70
2023/10/04 03:49:02;;;;;;;16.20;9.10;;;;;;;14.68;82.90;99677.02;108271;1251;59823;-70
2023/10/04 03:51:31;;;;;;;16.10;9.10;;;;;;;14.64;83.18;99680.42;108240;1251;74965;-71
2023/10/04 03:54:06;;;;;;;19.30;9.30;;;;;;;14.60;83.50;99678.50;108363;1251;70066;-71
2023/10/04 03:56:41;;;;;;;18.00;8.80;;;;;;;14.56;83.91;99682.78;108237;1252;73337;-70
2023/10/04 03:59:10;;;;;;;16.20;9.30;;;;;;;14.55;84.10;99686.40;108192;1253;59752;-70
2023/10/04 04:01:38;;;;;;;15.10;9.00;;;;;;;14.55;84.16;99686.92;108365;1251;60345;-69
2023/10/04 04:04:07;;;;;;;16.60;9.30;;;;;;;14.53;84.16;99686.98;108247;1251;72935;-70
2023/10/04 04:06:35;;;;;;;16.80;9.20;;;;;;;14.51;84.48;99686.06;108600;1251;69212;-71
2023/10/04 04:09:08;;;;;;;17.60;9.20;;;;;;;14.53;84.52;99690.02;108528;1251;71782;-70
2023/10/04 04:11:36;;;;;;;17.10;8.00;;;;;;;14.56;84.48;99694.96;108573;1253;59704;-69
2023/10/04 04:14:07;;;;;;;14.20;8.30;;;;;;;14.55;84.55;99696.42;108489;1252;59804;-69
2023/10/04 04:16:37;;;;;;;15.00;9.00;;;;;;;14.55;84.51;99698.85;108495;1253;74466;-67
2023/10/04 04:19:06;;;;;;;17.30;9.00;;;;;;;14.57;84.56;99699.67;108377;1251;69851;-66
2023/10/04 04:21:34;;;;;;;14.20;9.00;;;;;;;14.59;84.51;99694.79;108323;1251;72004;-68
2023/10/04 04:24:04;;;;;;;19.10;8.70;;;;;;;14.60;84.40;99693.33;108362;1253;59746;-67
2023/10/04 04:26:33;;;;;;;20.10;8.70;;;;;;;14.62;84.30;99689.50;108466;1253;59686;-67
2023/10/04 04:29:02;;;;;;;18.90;9.10;;;;;;;14.66;84.55;99684.56;108252;1251;73643;-66
2023/10/04 04:31:30;;;;;;;17.60;8.50;;;;;;;14.69;84.11;99685.08;108361;1253;69140;-65
2023/10/04 04:33:58;;;;;;;;;;;;;;;14.70;84.04;99683.79;108405;1255;72884;-64
2023/10/04 04:36:27;;;;;;;17.60;8.70;;;;;;;14.70;84.42;99679.73;108493;1252;60786;-65
2023/10/04 04:39:05;;;;;;;17.90;8.40;;;;;;;14.73;84.49;99679.85;108426;1251;60574;-65
2023/10/04 04:41:36;;;;;;;16.70;9.40;;;;;;;14.76;84.15;99679.02;108574;1253;74018;-66
2023/10/04 04:44:07;;;;;;;15.30;8.60;;;;;;;14.77;84.34;99678.23;108458;1253;70036;-66
2023/10/04 04:46:38;;;;;;;17.30;8.60;;;;;;;14.79;84.31;99678.27;108547;1253;71702;-64
2023/10/04 04:49:08;;;;;;;17.10;9.10;;;;;;;14.84;84.41;99675.54;108457;1251;60811;-65
2023/10/04 04:51:37;;;;;;;18.50;9.30;;;;;;;14.86;84.63;99678.19;108450;1253;59735;-64
2023/10/04 04:54:06;;;;;;;17.00;9.90;;;;;;;14.92;84.85;99679.64;108379;1251;74567;-65
2023/10/04 04:56:36;;;;;;;18.40;8.70;;;;;;;14.97;84.76;99680.90;108302;1252;69601;-65
2023/10/04 04:59:08;;;;;;;17.90;9.20;;;;;;;15.03;84.43;99678.63;108462;1253;72930;-66
2023/10/04 05:01:39;;;;;;;22.60;9.60;;;;;;;15.07;84.38;99670.77;108233;1253;60880;-65
2023/10/04 05:04:08;;;;;;;17.30;8.70;;;;;;;15.13;84.31;99669.02;108397;1253;59897;-65
2023/10/04 05:06:38;;;;;;;;;;;;;;;15.17;84.18;99672.61;108548;1253;73719;-64
2023/10/04 05:09:06;;;;;;;16.30;9.00;;;;;;;15.25;83.76;99674.11;108515;1251;69261;-66
2023/10/04 05:11:36;;;;;;;17.30;9.00;;;;;;;15.31;83.36;99670.89;108607;1252;72441;-65
2023/10/04 05:14:05;;;;;;;15.60;9.70;;;;;;;15.34;83.02;99669.27;108520;1252;59935;-65
2023/10/04 05:16:34;;;;;;;18.60;9.10;;;;;;;15.41;82.75;99667.10;108363;1253;60003;-65
2023/10/04 05:19:10;;;;;;;19.00;9.70;;;;;;;15.47;82.41;99660.53;108351;1256;74244;-66
2023/10/04 05:21:37;;;;;;;18.60;9.40;;;;;;;15.48;82.29;99652.52;108454;1253;69641;-68
2023/10/04 05:24:05;;;;;;;;;;;;;;;15.57;82.34;99656.88;108372;1254;72485;-66
2023/10/04 05:26:37;;;;;;;18.10;8.90;;;;;;;15.62;82.51;99658.89;108408;1252;60417;-66
2023/10/04 05:29:05;;;;;;;15.30;8.60;;;;;;;15.66;81.83;99660.09;108443;1252;59709;-66
2023/10/04 05:31:33;;;;;;;19.10;9.80;;;;;;;15.68;81.60;99656.25;108499;1253;73196;-64
2023/10/04 05:34:03;;;;;;;18.30;9.60;;;;;;;15.75;81.28;99648.16;108520;1253;68416;-65
2023/10/04 05:36:30;;;;;;;;;;;;;;;15.85;81.14;99649.89;108473;1253;72497;-66
2023/10/04 05:42:17;;;;;;;19.90;9.90;;;;;;;16.03;80.27;99632.60;101712;1291;601053;-66
2023/10/04 05:44:45;;;;;;;;;;;;;;;16.09;79.88;99632.25;103883;1269;59757;-66
2023/10/04 05:47:13;;;;;;;;;;;;;;;16.20;79.72;99641.73;104044;1259;59595;-67
2023/10/04 05:49:40;;;;;;;21.10;10.60;;;;;;;16.27;79.38;99650.50;103921;1258;71841;-66
2023/10/04 05:52:08;;;;;;;14.90;9.30;;;;;;;16.36;78.18;99655.88;104056;1270;69593;-66
2023/10/04 05:54:36;;;;;;;17.70;9.90;;;;;;;16.43;78.37;99655.45;104108;1265;73454;-67
2023/10/04 05:57:04;;;;;;;21.40;10.00;;;;;;;16.56;77.72;99656.48;104185;1262;265727;-65
2023/10/04 05:59:34;;;;;;;21.90;9.60;;;;;;;16.65;76.78;99667.09;104343;1260;60241;-66
2023/10/04 06:02:03;;;;;;;18.20;10.20;;;;;;;16.73;76.57;99672.35;107953;1257;72458;-67
2023/10/04 06:04:31;;;;;;;17.80;9.10;;;;;;;16.79;76.38;99661.50;107943;1254;69308;-64
2023/10/04 06:07:01;;;;;;;19.00;9.90;;;;;;;16.82;76.21;99657.98;108124;1257;72351;-68
2023/10/04 06:09:32;;;;;;;18.40;9.50;;;;;;;16.80;76.13;99654.56;108094;1256;59766;-68
2023/10/04 06:12:01;;;;;;;18.60;9.50;;;;;;;16.83;76.36;99651.15;108136;1254;59699;-69
2023/10/04 06:14:29;;;;;;;14.70;9.50;;;;;;;16.86;77.04;99655.41;108111;1255;73253;-69
2023/10/04 06:16:57;;;;;;;18.20;10.30;;;;;;;16.88;77.09;99659.86;108272;1255;69622;-70
2023/10/04 06:19:25;;;;;;;16.90;9.60;;;;;;;16.91;76.87;99653.63;107953;1257;71651;-69
2023/10/04 06:21:58;;;;;;;18.50;9.10;;;;;;;16.98;76.64;99650.87;108136;1255;59754;-69
2023/10/04 06:24:25;;;;;;;;;;;;;;;16.99;76.76;99649.72;108085;1254;60586;-68
2023/10/04 06:26:53;;;;;;;;;;;;;;;17.03;76.87;99645.94;108201;1253;72845;-70
2023/10/04 06:29:24;;;;;;;20.20;9.40;;;;;;;17.07;76.71;99646.15;108318;1254;69701;-70
2023/10/04 06:31:51;;;;;;;;;;;;;;;17.12;76.81;99644.02;108243;1254;72501;-69
2023/10/04 06:34:19;;;;;;;20.20;9.00;;;;;;;17.19;76.48;99641.21;108234;1257;59749;-70
2023/10/04 06:39:20;;;;;;;20.40;9.30;;;;;;;16.86;81.47;99649.13;101072;1291;619195;-70
2023/10/04 06:41:48;;;;;;;27.10;9.70;;;;;;;17.37;76.55;99655.20;103749;1269;59386;-68
2023/10/04 06:44:15;;;;;;;23.50;9.10;;;;;;;17.45;75.59;99658.16;103934;1267;59728;-68
2023/10/04 06:46:42;;;;;;;18.90;9.70;;;;;;;17.44;75.13;99658.63;103868;1268;71828;-69
2023/10/04 06:49:09;;;;;;;23.20;8.80;;;;;;;17.48;75.30;99662.06;103931;1288;69119;-71
2023/10/04 06:51:36;;;;;;;14.70;8.90;;;;;;;17.52;75.17;99656.61;103702;1281;336978;-69
2023/10/04 06:54:05;;;;;;;17.10;9.60;;;;;;;17.55;74.99;99656.26;106835;1262;60462;-70
2023/10/04 06:56:32;;;;;;;19.80;9.10;;;;;;;17.62;75.65;99655.41;107142;1262;60349;-69
2023/10/04 06:58:59;;;;;;;15.70;8.90;;;;;;;17.69;75.65;99650.59;108495;1251;72177;-70
2023/10/04 07:01:26;;;;;;;18.30;8.80;;;;;;;17.76;75.28;99648.88;106621;1253;69870;-70
2023/10/04 07:03:53;;;;;;;18.80;9.40;;;;;;;17.81;75.09;99647.60;104643;1256;73134;-70
2023/10/04 07:06:20;;;;;;;19.80;9.60;;;;;;;17.87;74.70;99649.23;104603;1252;59830;-69
2023/10/04 07:08:48;;;;;;;16.10;9.20;;;;;;;17.93;74.33;99647.33;104417;1256;60350;-68
2023/10/04 07:11:15;;;;;;;20.50;9.30;;;;;;;17.98;74.33;99642.85;104665;1255;73378;-68
2023/10/04 07:13:43;;;;;;;18.70;9.40;;;;;;;18.03;74.01;99647.70;104488;1254;69372;-69
2023/10/04 07:16:11;;;;;;;22.60;9.10;;;;;;;18.07;73.80;99640.41;104934;1251;72960;-71
2023/10/04 07:18:38;;;;;;;17.30;8.80;;;;;;;18.11;74.09;99643.34;104545;1253;60205;-69
2023/10/04 07:21:08;;;;;;;20.00;9.40;;;;;;;18.20;74.12;99639.66;108423;1252;59877;-67
2023/10/04 07:23:35;;;;;;;13.70;8.70;;;;;;;18.28;73.88;99647.23;107404;1255;73113;-70
2023/10/04 07:26:10;;;;;;;14.70;8.10;;;;;;;18.35;73.87;99646.19;105282;1254;69222;-67
2023/10/04 07:28:38;;;;;;;13.80;9.20;;;;;;;18.39;73.55;99650.17;106088;1253;72341;-69
2023/10/04 07:31:05;;;;;;;18.10;9.40;;;;;;;18.43;73.33;99650.55;108423;1253;60530;-67
2023/10/04 07:33:32;;;;;;;17.40;9.50;;;;;;;18.48;73.49;99658.50;106441;1253;60940;-71
2023/10/04 07:35:59;;;;;;;18.20;9.00;;;;;;;18.55;73.97;99659.75;104624;1256;71756;-69
2023/10/04 07:38:26;;;;;;;18.90;8.50;;;;;;;18.68;73.88;99657.88;104421;1255;69441;-67
2023/10/04 07:40:53;;;;;;;18.50;10.00;;;;;;;18.78;73.49;99656.95;104695;1269;72699;-69
2023/10/04 07:43:20;;;;;;;16.80;10.10;;;;;;;18.88;72.87;99661.70;104306;1253;59846;-68
2023/10/04 07:45:47;;;;;;;15.60;9.50;;;;;;;18.99;73.64;99662.08;104468;1256;60219;-66
2023/10/04 07:48:15;;;;;;;21.20;10.50;;;;;;;19.14;72.88;99666.50;105505;1252;73745;-63
2023/10/04 07:50:42;;;;;;;21.00;9.10;;;;;;;19.32;72.16;99667.19;106002;1255;69319;-66
2023/10/04 07:53:09;;;;;;;16.80;8.80;;;;;;;19.46;72.01;99670.02;108384;1253;71840;-65
2023/10/04 07:55:36;;;;;;;13.30;8.80;;;;;;;19.57;71.63;99674.30;105662;1252;59856;-65
2023/10/04 07:58:04;;;;;;;14.40;8.80;;;;;;;19.68;72.03;99677.30;105483;1251;59941;-65
2023/10/04 08:00:35;;;;;;;16.40;8.30;;;;;;;19.82;71.41;99681.14;104975;1253;72820;-64
2023/10/04 08:03:03;;;;;;;17.90;8.70;;;;;;;19.87;70.32;99675.11;104749;1256;68360;-65
2023/10/04 08:05:31;;;;;;;16.30;8.30;;;;;;;19.94;69.67;99682.75;104924;1255;72341;-65
2023/10/04 08:08:00;;;;;;;15.50;8.50;;;;;;;19.97;70.06;99677.45;104746;1256;59923;-65
2023/10/04 08:10:32;;;;;;;16.50;8.90;;;;;;;19.97;70.24;99684.60;104549;1253;60278;-67
2023/10/04 08:13:00;;;;;;;16.30;8.60;;;;;;;19.98;70.70;99686.47;104376;1256;73568;-67
2023/10/04 08:15:30;;;;;;;12.70;8.00;;;;;;;20.01;71.08;99689.30;104859;1259;67951;-69
2023/10/04 08:17:58;;;;;;;16.00;8.20;;;;;;;20.07;71.62;99681.48;104283;1274;72593;-67
2023/10/04 08:20:29;;;;;;;16.30;8.00;;;;;;;20.11;71.34;99691.80;104410;1269;60681;-66
2023/10/04 08:22:59;;;;;;;22.10;7.50;;;;;;;20.16;72.05;99696.98;104521;1268;60660;-68
2023/10/04 08:25:29;;;;;;;15.20;7.40;;;;;;;20.20;71.92;99704.23;104902;1251;71730;-71
2023/10/04 08:27:56;;;;;;;19.30;7.60;;;;;;;20.25;72.63;99704.58;104578;1255;69831;-68
2023/10/04 08:30:25;;;;;;;14.40;7.40;;;;;;;20.32;73.89;99705.11;104621;1253;73019;-67
2023/10/04 08:32:53;;;;;;;11.70;6.30;;;;;;;20.42;73.29;99705.84;104935;1256;59869;-70
2023/10/04 08:35:28;;;;;;;15.90;7.20;;;;;;;20.49;73.28;99706.17;104702;1263;60025;-65
2023/10/04 08:37:58;;;;;;;14.30;6.50;;;;;;;20.56;73.36;99709.45;104579;1253;73111;-69
2023/10/04 08:40:29;;;;;;;15.10;7.30;;;;;;;20.65;73.62;99710.17;104645;1255;69514;-65
2023/10/04 08:42:58;;;;;;;13.20;6.90;;;;;;;20.69;73.48;99719.64;104714;1257;71291;-66
2023/10/04 08:45:30;;;;;;;12.90;7.40;;;;;;;20.76;73.96;99715.00;104362;1256;60688;-65
2023/10/04 08:47:58;;;;;;;15.80;7.20;;;;;;;20.79;74.36;99720.08;104430;1251;60889;-67
2023/10/04 08:50:39;;;;;;;13.30;6.40;;;;;;;20.81;74.84;99717.75;104206;1256;72397;-67
2023/10/04 08:53:24;;;;;;;18.90;7.30;;;;;;;20.78;75.43;99716.75;107154;1252;70023;-65
2023/10/04 08:55:55;;;;;;;12.20;6.60;;;;;;;20.83;75.74;99716.52;108518;1252;72528;-66
2023/10/04 08:58:22;;;;;;;9.40;6.50;;;;;;;20.83;76.17;99720.95;105520;1256;60087;-63
2023/10/04 09:00:50;;;;;;;10.80;6.30;;;;;;;20.79;76.43;99718.50;104724;1256;60288;-64
2023/10/04 09:03:19;;;;;;;11.60;6.50;;;;;;;20.79;76.47;99713.11;106673;1252;73486;-64
2023/10/04 09:05:46;;;;;;;13.70;6.70;;;;;;;20.79;77.45;99709.53;107033;1253;70324;-64
2023/10/04 09:08:15;;;;;;;11.90;6.40;;;;;;;20.80;77.70;99712.70;104637;1256;72485;-63
2023/10/04 09:10:43;;;;;;;16.30;7.90;;;;;;;20.82;78.42;99711.98;104750;1256;60261;-63
2023/10/04 09:13:10;;;;;;;15.80;9.80;;;;;;;20.85;78.33;99709.46;104258;1251;60218;-66
2023/10/04 09:15:37;;;;;;;15.90;8.40;;;;;;;20.89;78.30;99709.23;104560;1253;71815;-66
2023/10/04 09:18:04;;;;;;;15.40;7.00;;;;;;;20.92;77.76;99706.33;105489;1251;68447;-69
2023/10/04 09:20:32;;;;;;;14.10;7.60;;;;;;;20.93;78.22;99710.91;106171;1256;73004;-67
2023/10/04 09:22:59;;;;;;;;;;;;;;;20.96;78.30;99719.38;104317;1255;60339;-67
2023/10/04 09:25:36;;;;;;;12.50;7.00;;;;;;;20.99;78.97;99731.93;104384;1253;59805;-68
2023/10/04 09:28:07;;;;;;;18.30;11.00;;;;;;;21.02;78.78;99736.52;105223;1253;73253;-66
2023/10/04 09:30:36;;;;;;;12.30;7.80;;;;;;;21.02;79.95;99733.65;104588;1253;70137;-66
2023/10/04 09:33:04;;;;;;;11.90;6.50;;;;;;;21.06;80.70;99731.38;104405;1252;72943;-65
2023/10/04 09:35:43;;;;;;;13.20;6.00;;;;;;;21.11;80.97;99723.04;104386;1256;60350;-65
2023/10/04 09:38:20;;;;;;;14.10;6.60;;;;;;;21.14;81.97;99724.19;104365;1272;61041;-68
2023/10/04 09:40:57;;;;;;;7.90;6.00;;;;;;;21.17;83.28;99729.84;104250;1275;73641;-66
2023/10/04 09:43:35;;;;;;;7.20;5.00;;;;;;;21.20;83.06;99732.10;104331;1259;69585;-66
2023/10/04 09:46:04;;;;;;;12.40;5.90;;;;;;;21.17;84.38;99738.44;104458;1253;73043;-68
2023/10/04 09:48:31;;;;;;;11.60;6.40;;;;;;;21.10;85.47;99735.11;104584;1255;59733;-68
2023/10/04 09:51:00;;;;;;;8.00;5.50;;;;;;;21.12;85.19;99741.00;104702;1254;61004;-64
2023/10/04 09:53:28;;;;;;;10.80;5.70;;;;;;;21.13;85.70;99746.27;105943;1252;72613;-66
2023/10/04 09:56:04;;;;;;;9.50;5.90;;;;;;;21.21;86.09;99747.02;108465;1252;69288;-67
2023/10/04 09:58:32;;;;;;;11.30;6.30;;;;;;;21.19;88.22;99746.26;104746;1275;74324;-66
2023/10/04 10:01:03;;;;;;;11.90;6.40;;;;;;;21.22;86.89;99757.11;104610;1256;62874;-65
2023/10/04 10:03:36;;;;;;;9.10;6.40;;;;;;;21.21;87.12;99755.89;105482;1256;61106;-65
2023/10/04 10:06:06;;;;;;;6.70;5.70;;;;;;;21.21;86.78;99760.73;106658;1253;73687;-69
2023/10/04 10:08:34;;;;;;;10.20;6.80;;;;;;;21.16;87.13;99766.50;104901;1253;68693;-67
2023/10/04 10:11:07;;;;;;;10.80;5.70;;;;;;;21.18;87.35;99767.38;104563;1255;73176;-65
2023/10/04 10:13:34;;;;;;;16.10;12.90;;;;;;;21.23;88.20;99762.51;104629;1252;60162;-65
2023/10/04 10:16:01;;;;;;;12.60;7.40;;;;;;;21.28;87.45;99765.82;104887;1257;60101;-66
2023/10/04 10:18:28;;;;;;;10.90;7.30;;;;;;;21.29;87.12;99767.65;104517;1259;72988;-67
2023/10/04 10:20:57;;;;;;;14.40;7.90;;;;;;;21.35;87.02;99772.55;104871;1253;69819;-64
2023/10/04 10:23:24;;;;;;;10.60;6.80;;;;;;;21.36;87.12;99779.56;104981;1254;72829;-63
2023/10/04 10:26:18;;;;;;;12.80;7.00;;;;;;;21.40;87.68;99779.27;104767;1252;61004;-67
2023/10/04 10:28:47;;;;;;;9.50;6.00;;;;;;;21.47;87.00;99779.00;104741;1253;59356;-62
2023/10/04 10:31:20;;;;;;;11.20;5.80;;;;;;;21.51;87.18;99781.34;105259;1255;72813;-67
2023/10/04 10:33:49;;;;;;;11.20;6.20;;;;;;;21.55;85.91;99776.55;104631;1253;71349;-68
2023/10/04 10:36:21;;;;;;;12.30;8.50;;;;;;;21.60;85.47;99779.31;104521;1253;72949;-66
2023/10/04 10:38:51;;;;;;;12.00;7.80;;;;;;;21.65;84.70;99776.07;104996;1256;62176;-66
2023/10/04 10:41:28;;;;;;;11.60;6.30;;;;;;;21.69;85.46;99781.02;104625;1256;59648;-66
2023/10/04 10:44:16;;;;;;;12.70;8.30;;;;;;;21.71;83.11;99781.96;105017;1253;72921;-67
2023/10/04 10:47:02;;;;;;;11.60;6.00;;;;;;;21.72;83.54;99782.92;104723;1256;70305;-66
2023/10/04 10:49:42;;;;;;;9.00;6.10;;;;;;;21.75;83.10;99782.69;104883;1252;72510;-67
2023/10/04 10:52:25;;;;;;;9.70;5.40;;;;;;;21.80;83.50;99790.23;104562;1256;61830;-69
2023/10/04 10:54:52;;;;;;;8.20;5.30;;;;;;;21.87;82.88;99794.48;105701;1253;60901;-69
2023/10/04 10:57:24;;;;;;;6.90;5.00;;;;;;;21.94;83.02;99800.28;106905;1253;73625;-65
2023/10/04 10:59:53;;;;;;;12.50;5.10;;;;;;;22.01;81.84;99791.27;106393;1254;69437;-66
2023/10/04 11:02:21;;;;;;;7.50;5.20;;;;;;;22.10;82.13;99799.36;104856;1253;72664;-67
2023/10/04 11:04:49;;;;;;;8.90;5.30;;;;;;;22.12;81.10;99810.27;104903;1253;60655;-67
2023/10/04 11:07:17;;;;;;;10.10;5.40;;;;;;;22.09;80.46;99812.14;104500;1254;60537;-66
2023/10/04 11:09:51;;;;;;;10.30;5.20;;;;;;;22.04;80.46;99809.52;104307;1253;73833;-66
2023/10/04 11:12:22;;;;;;;8.60;4.70;;;;;;;22.02;80.96;99808.88;104310;1275;69672;-66
2023/10/04 11:14:50;;;;;;;9.20;5.40;;;;;;;22.02;80.92;99812.40;104570;1258;72424;-66
2023/10/04 11:17:20;;;;;;;5.50;4.50;;;;;;;22.00;81.41;99820.29;104648;1257;61101;-67
2023/10/04 11:19:48;;;;;;;8.10;5.10;;;;;;;21.97;82.29;99829.23;104624;1251;60683;-65
2023/10/04 11:22:15;;;;;;;9.70;4.70;;;;;;;21.97;82.56;99836.36;105553;1251;74128;-67
2023/10/04 11:24:45;;;;;;;7.60;4.30;;;;;;;22.01;82.68;99839.27;104743;1257;69539;-68
2023/10/04 11:27:12;;;;;;;11.30;4.90;;;;;;;22.06;83.00;99838.69;108460;1251;72456;-66
2023/10/04 11:29:40;;;;;;;;;;;;;;;22.09;83.17;99844.27;107162;1253;60360;-66
2023/10/04 11:32:11;;;;;;;10.90;5.10;;;;;;;22.08;82.93;99845.48;108179;1252;60007;-67
2023/10/04 11:34:38;;;;;;;;;;;;;;;22.09;83.52;99841.57;105289;1256;73969;-66
2023/10/04 11:37:05;;;;;;;10.40;4.80;;;;;;;22.09;83.80;99844.98;104573;1253;69816;-68